Amsterdam, MO

9:07 AM CDT on September 02, 2014 (GMT -0500)
KMOAMSTE2 | Change Station
CLOSE
Current Station
Personal Weather Station
Location: Amsterdam, MO
Elevation: 906 ft
Nearby Weather Stations

Elev 906 ft 38.36 °N, 94.61 °W | Updated 0 second ago

Overcast
Overcast
72.7 °F
Feels Like 72.7 °F
N
0.0
Wind Variable Wind from SE
Gusts 0.0 mph

Today
High -- | Low -- °F
--% Chance of Precip.
Yesterday
High -- | Low -- °F
Precip. -- in
6:48 AM 7:46 PM
First Quarter, 51% visible
Pressure 29.95 in
Visibility 3.0 miles
Clouds Overcast 500 ft
Dew Point 72 °F
Humidity 98%
Rainfall 0.00 in
Snow Depth Not available.
UV 1 out of 12
Pollen 9.00 out of 12
Air Quality Not available.
Flu Activity Not available.
METAR KOJC 021353Z 34003KT 3SM BR OVC005 21/20 A2998 RMK AO2 SLP142 T02110200

More Conditions Fewer Conditions

Pressure 29.95 in
Visibility 3.0 miles
Clouds Overcast 500 ft
Dew Point 72 °F
Humidity 98%
Rainfall 0.00 in
Snow Depth Not available.
UV 1 out of 12
Pollen 9.00 out of 12
Air Quality Not available.
Flu Activity Not available.
METAR KOJC 021353Z 34003KT 3SM BR OVC005 21/20 A2998 RMK AO2 SLP142 T02110200

More Conditions Fewer Conditions

10-Day Weather Forecast

Almanac

Astronomy

Sep. 02, 2014 Rise Set
Actual Time 6:48 AM CDT 7:46 PM CDT
Civil Twilight 6:21 AM CDT 8:13 PM CDT
Nautical Twilight 5:49 AM CDT 8:45 PM CDT
Astronomical Twilight 5:15 AM CDT 9:18 PM CDT
Moon 2:28 PM CDT No Moon Set
Length of Visible Light 13h 52m
Length of Day
12h 57m
Tomorrow will be 2m 24s shorter.
First Quarter, 51% of the Moon is Illuminated
Today
First Quarter
Sep 8
Full
Sep 15
Last Quarter
Sep 24
New
Oct 1
First Quarter

Today's Extremes

State Highs State Lows

Community

WunderPhotos

Upload Photos

1,749,670 photos uploaded!

WunderBlogs® & News

Nearby

Snow Depth

Station Depth Elevation
No new snow has been reported.

Earthquake Activity

City Distance Mag. Time & Date
No recent earthquake activity has been reported nearby.
Minimum magnitude displayed is 2.5.

Coastal Water Temperatures

Place Temperature
No Stations Reporting

Nearby Weather Stations